Time;durP1;ratioP1;P1;durP2;ratioP2;P2;SDS_P1;SDS_P2;PMS_P1;PMS_P2;Temp;Humidity;BMP_temperature;BMP_pressure;BME280_temperature;BME280_humidity;BME280_pressure;Samples;Min_cycle;Max_cycle;Signal;HPM_P1;HPM_P2
2021/09/11 00:00:51;;;;;;;5.40;2.90;;;;;;;20.62;68.12;100692.63;5085533;28;20040;-65
2021/09/11 00:03:21;;;;;;;7.70;3.13;;;;;;;20.55;68.14;100676.13;5080374;28;20094;-63
2021/09/11 00:05:48;;;;;;;;;;;;;;;20.50;68.29;100686.81;5083372;28;20049;-65
2021/09/11 00:08:15;;;;;;;4.90;3.05;;;;;;;20.49;68.62;100691.66;5074392;28;20001;-64
2021/09/11 00:10:41;;;;;;;12.40;3.53;;;;;;;20.51;68.37;100692.19;5083077;28;20162;-65
2021/09/11 00:13:08;;;;;;;8.52;3.10;;;;;;;20.57;68.24;100670.09;5080684;28;20215;-62
2021/09/11 00:15:36;;;;;;;11.23;3.83;;;;;;;20.56;68.19;100669.28;5081917;28;20138;-61
2021/09/11 00:18:06;;;;;;;9.18;2.83;;;;;;;20.58;68.11;100661.25;5093802;28;20127;-62
2021/09/11 00:20:33;;;;;;;9.43;3.17;;;;;;;20.48;68.02;100649.47;5087561;28;20060;-59
2021/09/11 00:23:01;;;;;;;8.02;3.08;;;;;;;20.62;68.03;100667.06;5074949;28;20135;-61
2021/09/11 00:25:28;;;;;;;5.32;3.50;;;;;;;20.53;67.96;100669.97;5080077;28;20416;-62
2021/09/11 00:27:55;;;;;;;7.88;2.50;;;;;;;20.52;68.29;100674.00;5082890;28;20400;-61
2021/09/11 00:30:22;;;;;;;5.13;2.85;;;;;;;20.47;68.09;100659.13;5085749;28;20082;-62
2021/09/11 00:32:49;;;;;;;15.60;3.15;;;;;;;20.63;67.67;100670.75;5085079;28;20136;-61
2021/09/11 00:35:17;;;;;;;8.77;3.05;;;;;;;20.59;67.98;100656.41;5081086;28;20139;-60
2021/09/11 00:37:45;;;;;;;5.78;2.83;;;;;;;20.33;67.87;100636.72;5091869;28;20138;-60
2021/09/11 00:40:14;;;;;;;7.65;2.50;;;;;;;20.34;68.20;100655.38;5092219;28;20373;-60
2021/09/11 00:42:48;;;;;;;9.15;2.88;;;;;;;20.10;67.89;100637.03;5087443;28;20067;-61
2021/09/11 00:45:21;;;;;;;6.63;2.67;;;;;;;20.09;68.15;100646.69;5084771;28;20131;-60
2021/09/11 00:47:48;;;;;;;8.95;2.63;;;;;;;20.05;68.62;100659.91;5079868;28;20136;-61
2021/09/11 00:50:16;;;;;;;6.95;2.50;;;;;;;19.98;68.79;100655.97;5082518;28;20127;-60
2021/09/11 00:52:46;;;;;;;5.80;2.15;;;;;;;19.99;69.41;100644.25;5090514;28;20599;-60
2021/09/11 00:55:15;;;;;;;5.55;2.38;;;;;;;20.05;68.99;100642.91;5091414;28;20047;-61
2021/09/11 00:57:45;;;;;;;7.55;2.72;;;;;;;20.14;68.87;100645.69;5086550;28;20124;-61
2021/09/11 01:00:13;;;;;;;7.88;3.35;;;;;;;20.23;68.85;100631.44;5079540;28;20126;-60
2021/09/11 01:02:40;;;;;;;5.18;2.65;;;;;;;20.31;68.05;100616.41;5092922;28;20052;-60
2021/09/11 01:05:09;;;;;;;7.88;2.65;;;;;;;20.39;68.16;100626.84;5078540;28;20123;-61
2021/09/11 01:07:39;;;;;;;7.35;3.53;;;;;;;20.38;68.35;100630.84;5093452;28;20396;-60
2021/09/11 01:10:07;;;;;;;5.68;2.85;;;;;;;20.35;68.16;100632.38;5086271;28;20048;-61
2021/09/11 01:12:34;;;;;;;5.53;2.53;;;;;;;20.35;67.88;100628.69;5078287;28;20475;-61
2021/09/11 01:15:11;;;;;;;8.02;2.75;;;;;;;20.20;67.82;100620.78;5084357;28;20127;-60
2021/09/11 01:17:40;;;;;;;9.60;3.22;;;;;;;20.10;68.14;100627.69;5085070;28;20102;-60
2021/09/11 01:20:08;;;;;;;6.35;2.88;;;;;;;19.96;68.35;100610.09;5088736;28;20072;-61
2021/09/11 01:22:35;;;;;;;7.38;2.40;;;;;;;20.06;68.30;100627.53;5087743;28;20044;-60
2021/09/11 01:25:05;;;;;;;10.25;2.67;;;;;;;20.00;68.19;100611.94;5078729;28;20064;-59
2021/09/11 01:27:32;;;;;;;10.18;2.60;;;;;;;19.98;68.25;100611.44;5081898;28;20074;-59
2021/09/11 01:30:03;;;;;;;7.30;2.97;;;;;;;20.02;68.46;100620.06;5089426;28;20125;-62
2021/09/11 01:32:31;;;;;;;7.72;3.05;;;;;;;19.97;68.63;100609.78;5084939;28;20146;-64
2021/09/11 01:34:58;;;;;;;7.22;2.47;;;;;;;20.03;68.67;100611.25;5088704;28;20131;-64
2021/09/11 01:37:25;;;;;;;8.85;3.00;;;;;;;20.10;68.37;100617.19;5086588;28;20079;-62
2021/09/11 01:39:52;;;;;;;6.95;2.92;;;;;;;19.95;67.82;100599.94;5081022;28;20052;-62
2021/09/11 01:42:22;;;;;;;11.02;2.85;;;;;;;20.01;68.03;100609.91;5086015;28;20079;-62
2021/09/11 01:44:52;;;;;;;6.68;2.60;;;;;;;19.86;67.92;100583.84;5083274;28;20118;-62
2021/09/11 01:47:19;;;;;;;12.07;3.20;;;;;;;19.91;68.23;100602.63;5087663;28;20549;-62
2021/09/11 01:49:46;;;;;;;5.57;2.70;;;;;;;19.88;68.63;100600.47;5082050;28;20129;-61
2021/09/11 01:52:13;;;;;;;5.63;2.72;;;;;;;19.93;68.53;100588.97;5088729;28;20090;-61
2021/09/11 01:54:41;;;;;;;6.40;3.13;;;;;;;19.86;68.41;100588.66;5084294;28;20072;-61
2021/09/11 01:57:11;;;;;;;6.20;3.28;;;;;;;19.79;68.13;100585.53;5085462;28;20480;-61
2021/09/11 01:59:40;;;;;;;4.65;2.53;;;;;;;19.77;68.69;100590.72;5077602;28;20127;-61
2021/09/11 02:02:08;;;;;;;4.85;2.58;;;;;;;19.76;69.12;100583.38;5086098;28;20074;-61
2021/09/11 02:04:35;;;;;;;8.60;2.75;;;;;;;19.73;68.90;100584.09;5077420;28;20602;-63
2021/09/11 02:07:03;;;;;;;8.32;2.50;;;;;;;19.82;69.05;100587.69;5080087;28;20079;-63
2021/09/11 02:09:32;;;;;;;5.93;2.40;;;;;;;19.89;68.62;100565.28;5074710;28;20083;-65
2021/09/11 02:11:59;;;;;;;6.25;2.65;;;;;;;19.92;67.98;100575.13;5079216;28;20126;-70
2021/09/11 02:14:26;;;;;;;5.32;2.65;;;;;;;19.88;68.45;100574.97;5077466;28;20139;-68
2021/09/11 02:16:53;;;;;;;7.55;2.80;;;;;;;19.87;68.27;100579.00;5081867;28;20080;-64
2021/09/11 02:19:20;;;;;;;6.50;2.67;;;;;;;19.75;68.30;100559.88;5076503;28;20056;-64
2021/09/11 02:21:47;;;;;;;15.00;3.72;;;;;;;19.73;68.46;100561.41;5091113;28;20130;-62
2021/09/11 02:24:14;;;;;;;5.85;2.65;;;;;;;19.74;68.15;100561.06;5077661;28;20086;-64
2021/09/11 02:26:42;;;;;;;5.90;2.67;;;;;;;19.75;68.09;100573.22;5074811;28;20539;-61
2021/09/11 02:29:09;;;;;;;6.75;2.65;;;;;;;19.68;67.77;100565.25;5081045;28;20074;-63
2021/09/11 02:31:36;;;;;;;9.43;2.53;;;;;;;19.53;68.21;100554.50;5084789;28;20083;-65
2021/09/11 02:34:03;;;;;;;4.40;2.35;;;;;;;19.65;68.68;100560.28;5070717;28;20279;-63
2021/09/11 02:36:30;;;;;;;5.32;2.53;;;;;;;19.70;68.49;100562.94;5073344;28;20127;-66
2021/09/11 02:38:57;;;;;;;8.50;2.80;;;;;;;19.57;68.74;100553.44;5078974;28;20079;-67
2021/09/11 02:41:24;;;;;;;10.48;2.88;;;;;;;19.53;69.07;100560.16;5064041;28;20102;-67
2021/09/11 02:43:50;;;;;;;7.28;3.15;;;;;;;19.53;69.23;100557.31;5084641;28;20139;-65
2021/09/11 02:46:17;;;;;;;8.90;3.65;;;;;;;19.46;69.08;100540.84;5080975;28;20476;-65
2021/09/11 02:48:44;;;;;;;6.65;3.08;;;;;;;19.37;69.58;100551.38;5086354;28;20045;-59
2021/09/11 02:51:11;;;;;;;10.77;3.17;;;;;;;19.20;69.33;100512.66;5085204;28;20066;-61
2021/09/11 02:53:38;;;;;;;6.13;2.28;;;;;;;19.32;69.39;100541.09;5087608;28;20079;-61
2021/09/11 02:56:05;;;;;;;7.03;2.92;;;;;;;19.36;69.33;100541.25;5088890;28;20134;-60
2021/09/11 02:58:31;;;;;;;7.13;2.80;;;;;;;19.44;69.19;100543.19;5083972;28;20140;-61
2021/09/11 03:00:58;;;;;;;7.53;2.78;;;;;;;19.38;69.13;100530.38;5087844;28;20126;-64
2021/09/11 03:03:26;;;;;;;9.27;3.17;;;;;;;19.37;69.32;100548.56;5087946;28;20058;-63
2021/09/11 03:05:53;;;;;;;4.80;2.38;;;;;;;19.38;69.37;100541.72;5090513;28;20048;-65
2021/09/11 03:08:20;;;;;;;7.18;2.70;;;;;;;19.37;69.23;100521.06;5080546;28;20381;-63
2021/09/11 03:10:47;;;;;;;12.00;2.85;;;;;;;19.43;69.02;100530.22;5070940;28;20048;-63
2021/09/11 03:13:15;;;;;;;7.50;2.67;;;;;;;19.36;68.93;100527.91;5071033;28;20055;-63
2021/09/11 03:15:42;;;;;;;6.30;2.40;;;;;;;19.25;69.29;100511.63;5076090;28;20131;-67
2021/09/11 03:18:09;;;;;;;9.13;2.75;;;;;;;19.36;69.06;100532.75;5083958;28;20140;-66
2021/09/11 03:20:36;;;;;;;8.85;3.10;;;;;;;19.42;69.18;100535.06;5076459;28;20139;-64
2021/09/11 03:23:05;;;;;;;4.50;2.38;;;;;;;19.41;69.28;100509.88;5081237;28;20068;-62
2021/09/11 03:25:32;;;;;;;15.10;2.72;;;;;;;19.57;68.95;100529.97;5088486;28;20056;-62
2021/09/11 03:27:59;;;;;;;7.28;2.72;;;;;;;19.50;68.94;100536.16;5092198;28;20469;-62
2021/09/11 03:30:26;;;;;;;6.57;3.15;;;;;;;19.42;68.85;100523.72;5084105;28;20043;-64
2021/09/11 03:32:53;;;;;;;5.15;3.22;;;;;;;19.40;68.79;100525.22;5086694;28;20468;-66
2021/09/11 03:35:20;;;;;;;10.43;3.78;;;;;;;19.34;68.66;100523.75;5083796;28;20139;-63
2021/09/11 03:37:47;;;;;;;6.32;2.92;;;;;;;19.30;68.61;100520.78;5092235;28;20090;-61
2021/09/11 03:40:14;;;;;;;6.15;2.83;;;;;;;19.26;68.50;100530.28;5080322;28;20116;-60
2021/09/11 03:42:41;;;;;;;8.20;3.38;;;;;;;19.22;68.90;100530.16;5074245;28;20043;-60
2021/09/11 03:45:08;;;;;;;8.90;3.45;;;;;;;19.22;69.28;100520.81;5085046;28;20519;-63
2021/09/11 03:47:35;;;;;;;7.85;2.30;;;;;;;19.32;69.38;100528.94;5090638;28;20048;-60
2021/09/11 03:50:04;;;;;;;6.72;3.58;;;;;;;19.43;69.32;100527.38;5081274;28;20068;-60
2021/09/11 03:52:31;;;;;;;15.43;3.17;;;;;;;19.52;69.19;100536.66;5074021;28;20502;-60
2021/09/11 03:54:58;;;;;;;7.15;2.95;;;;;;;19.49;68.87;100534.53;5088390;28;20470;-60
2021/09/11 03:57:25;;;;;;;7.30;2.90;;;;;;;19.49;68.83;100531.69;5089001;28;20162;-60
2021/09/11 03:59:52;;;;;;;7.15;2.85;;;;;;;19.40;68.45;100514.72;5089124;28;20040;-61
2021/09/11 04:02:19;;;;;;;5.40;2.70;;;;;;;19.37;68.90;100520.25;5083224;28;20075;-59
2021/09/11 04:04:46;;;;;;;10.13;4.65;;;;;;;19.31;68.86;100515.94;5090467;28;20040;-61
2021/09/11 04:07:13;;;;;;;5.65;2.78;;;;;;;19.28;69.04;100519.44;5087345;28;20124;-61
2021/09/11 04:09:40;;;;;;;6.03;3.17;;;;;;;19.28;68.78;100517.47;5084879;28;20127;-61
2021/09/11 04:12:07;;;;;;;6.18;3.17;;;;;;;19.20;69.11;100514.66;5086999;28;20146;-62
2021/09/11 04:14:34;;;;;;;9.98;3.28;;;;;;;19.09;69.21;100515.03;5089734;28;20079;-60
2021/09/11 04:17:01;;;;;;;10.30;4.15;;;;;;;19.08;69.35;100519.03;5085932;28;20044;-62
2021/09/11 04:19:28;;;;;;;10.20;3.35;;;;;;;19.02;69.67;100503.41;5090154;28;20131;-62
2021/09/11 04:21:55;;;;;;;8.02;3.05;;;;;;;19.12;69.14;100520.03;5089389;28;20131;-60
2021/09/11 04:24:21;;;;;;;8.73;3.00;;;;;;;19.17;69.03;100519.81;5083471;28;20075;-60
2021/09/11 04:26:48;;;;;;;3.50;2.42;;;;;;;19.16;68.75;100521.00;5086340;28;20131;-63
2021/09/11 04:29:15;;;;;;;4.18;2.60;;;;;;;19.17;68.69;100522.66;5082972;28;20076;-63
2021/09/11 04:31:42;;;;;;;11.13;4.13;;;;;;;19.10;68.93;100518.69;5086296;28;20465;-64
2021/09/11 04:34:09;;;;;;;9.73;2.78;;;;;;;19.10;69.29;100521.53;5073721;28;20426;-63
2021/09/11 04:36:35;;;;;;;5.97;2.63;;;;;;;19.05;69.48;100493.41;5073845;28;20139;-62
2021/09/11 04:39:02;;;;;;;8.45;3.13;;;;;;;19.13;69.63;100501.84;5082968;28;20131;-64
2021/09/11 04:41:29;;;;;;;5.15;2.90;;;;;;;19.18;69.56;100513.00;5071871;28;20083;-68
2021/09/11 04:43:56;;;;;;;9.48;2.70;;;;;;;19.17;69.40;100513.34;5086678;28;20087;-67
2021/09/11 04:46:23;;;;;;;7.28;2.90;;;;;;;19.04;69.29;100512.41;5086580;28;20466;-63
2021/09/11 04:48:50;;;;;;;5.32;2.90;;;;;;;19.22;69.23;100513.16;5087718;28;20048;-62
2021/09/11 04:51:16;;;;;;;6.15;3.17;;;;;;;19.25;69.04;100512.47;5079433;28;20564;-61
2021/09/11 04:53:43;;;;;;;3.97;2.30;;;;;;;19.20;69.28;100514.66;5080470;28;20123;-61
2021/09/11 04:56:10;;;;;;;3.67;2.15;;;;;;;19.26;69.23;100508.47;5088927;28;20123;-61
2021/09/11 04:58:37;;;;;;;7.75;2.83;;;;;;;19.11;69.16;100486.38;5082187;28;20049;-61
2021/09/11 05:01:04;;;;;;;8.30;2.85;;;;;;;18.93;69.14;100482.78;5079915;28;20040;-62
2021/09/11 05:03:31;;;;;;;6.30;2.83;;;;;;;18.98;69.33;100510.09;5081276;28;20048;-62
2021/09/11 05:05:58;;;;;;;9.52;3.03;;;;;;;19.04;69.62;100503.06;5085349;28;20091;-64
2021/09/11 05:08:25;;;;;;;5.68;2.92;;;;;;;19.04;69.55;100511.56;5089999;28;20079;-60
2021/09/11 05:10:51;;;;;;;5.80;2.60;;;;;;;19.00;69.50;100508.56;5089000;28;20051;-61
2021/09/11 05:13:18;;;;;;;4.43;3.05;;;;;;;18.96;69.59;100503.94;5084535;28;20540;-70
2021/09/11 05:15:45;;;;;;;9.77;3.13;;;;;;;18.99;69.53;100504.09;5083607;28;20063;-61
2021/09/11 05:18:12;;;;;;;4.93;3.17;;;;;;;19.02;69.54;100520.41;5087861;28;20044;-60
2021/09/11 05:20:39;;;;;;;4.90;3.08;;;;;;;18.99;69.69;100520.25;5087311;28;20063;-62
2021/09/11 05:23:06;;;;;;;7.20;3.00;;;;;;;18.95;69.78;100511.59;5083002;28;20048;-59
2021/09/11 05:25:32;;;;;;;4.05;2.10;;;;;;;19.12;69.30;100520.03;5083158;28;20441;-61
2021/09/11 05:27:59;;;;;;;4.75;2.03;;;;;;;19.11;69.24;100512.72;5073457;28;20116;-59
2021/09/11 05:30:26;;;;;;;5.78;2.53;;;;;;;19.13;69.90;100521.66;5082419;28;20048;-59
2021/09/11 05:32:53;;;;;;;6.97;3.53;;;;;;;19.06;69.61;100500.72;5089849;28;20476;-59
2021/09/11 05:35:20;;;;;;;8.82;3.00;;;;;;;19.21;69.64;100522.81;5078907;28;20041;-61
2021/09/11 05:37:47;;;;;;;6.32;3.05;;;;;;;19.27;69.66;100526.28;5087628;28;20124;-60
2021/09/11 05:40:13;;;;;;;5.50;2.53;;;;;;;19.23;69.35;100519.66;5080756;28;20072;-62
2021/09/11 05:42:41;;;;;;;8.00;3.95;;;;;;;19.25;69.66;100523.81;5082418;28;20124;-62
2021/09/11 05:45:08;;;;;;;7.65;3.28;;;;;;;19.32;69.46;100523.28;5078054;28;20763;-63
2021/09/11 05:47:35;;;;;;;9.23;2.60;;;;;;;19.28;69.26;100522.28;5093228;28;20075;-63
2021/09/11 05:50:02;;;;;;;5.85;2.88;;;;;;;19.35;69.12;100520.59;5085723;28;20123;-63
2021/09/11 05:52:29;;;;;;;5.72;2.63;;;;;;;19.31;68.91;100527.25;5088443;28;20076;-63
2021/09/11 05:54:55;;;;;;;7.82;3.08;;;;;;;19.36;68.90;100524.25;5091500;28;20079;-63
2021/09/11 05:57:24;;;;;;;4.85;2.35;;;;;;;19.32;68.85;100528.94;5092747;28;20051;-63
2021/09/11 05:59:51;;;;;;;6.53;2.30;;;;;;;19.49;68.85;100540.19;5078168;28;20087;-62
2021/09/11 06:02:18;;;;;;;5.32;2.33;;;;;;;19.40;69.13;100530.88;5082086;28;20048;-62
2021/09/11 06:04:46;;;;;;;4.85;2.42;;;;;;;19.23;68.70;100536.63;5089104;28;20051;-63
2021/09/11 06:07:13;;;;;;;4.38;2.55;;;;;;;18.96;68.83;100529.41;5077483;28;20053;-60
2021/09/11 06:09:39;;;;;;;7.32;3.42;;;;;;;18.82;69.23;100538.09;5082761;28;20059;-61
2021/09/11 06:12:10;;;;;;;5.78;3.05;;;;;;;18.66;69.13;100535.75;5089602;28;20123;-66
2021/09/11 06:14:40;;;;;;;11.10;3.30;;;;;;;18.50;69.16;100539.47;5071641;28;20048;-68
2021/09/11 06:17:08;;;;;;;5.72;2.85;;;;;;;18.46;69.54;100536.44;5092557;28;20436;-64
2021/09/11 06:19:36;;;;;;;7.18;2.58;;;;;;;18.35;69.45;100541.63;5081743;28;20062;-66
2021/09/11 06:22:04;;;;;;;7.63;2.80;;;;;;;18.28;69.64;100543.28;5076272;28;20196;-65
2021/09/11 06:24:31;;;;;;;6.03;2.97;;;;;;;18.14;69.55;100527.31;5090631;28;20076;-64
2021/09/11 06:26:58;;;;;;;7.65;2.63;;;;;;;18.19;69.87;100544.13;5072484;28;20053;-64
2021/09/11 06:29:25;;;;;;;6.00;3.13;;;;;;;18.17;70.22;100552.09;5081525;28;20095;-65
2021/09/11 06:31:51;;;;;;;13.50;2.92;;;;;;;18.13;69.96;100551.09;5083384;28;20123;-64
2021/09/11 06:34:18;;;;;;;4.40;2.42;;;;;;;18.16;69.83;100558.91;5086937;28;20040;-64
2021/09/11 06:36:45;;;;;;;6.70;3.05;;;;;;;18.10;69.87;100550.94;5091684;28;20385;-64
2021/09/11 06:39:13;;;;;;;5.82;2.88;;;;;;;18.05;69.93;100557.59;5091915;28;20136;-64
2021/09/11 06:41:39;;;;;;;8.90;3.00;;;;;;;18.09;69.94;100563.41;5087697;28;20083;-64
2021/09/11 06:44:06;;;;;;;7.22;2.83;;;;;;;18.04;69.99;100553.06;5081461;28;20128;-65
2021/09/11 06:46:33;;;;;;;8.13;2.72;;;;;;;18.12;69.96;100566.41;5076879;28;20568;-65
2021/09/11 06:49:00;;;;;;;5.75;3.00;;;;;;;18.13;70.05;100559.59;5079523;28;20051;-65
2021/09/11 06:51:27;;;;;;;6.95;2.97;;;;;;;18.13;70.01;100561.59;5087817;28;20130;-64
2021/09/11 06:53:54;;;;;;;9.38;2.80;;;;;;;18.17;70.02;100562.56;5086926;28;20080;-65
2021/09/11 06:56:21;;;;;;;6.13;2.13;;;;;;;18.26;69.94;100571.06;5075690;28;20127;-65
2021/09/11 06:58:48;;;;;;;7.70;2.88;;;;;;;18.29;70.24;100570.38;5073263;28;20088;-65
2021/09/11 07:01:15;;;;;;;4.15;2.47;;;;;;;18.33;69.96;100566.56;5087293;28;20138;-64
2021/09/11 07:03:45;;;;;;;8.88;2.85;;;;;;;18.49;69.46;100581.03;5076798;28;20045;-64
2021/09/11 07:06:13;;;;;;;5.60;2.90;;;;;;;18.57;69.55;100591.53;5072435;28;20060;-65
2021/09/11 07:08:40;;;;;;;7.30;2.38;;;;;;;18.82;69.37;100586.19;5072026;28;20044;-64
2021/09/11 07:11:12;;;;;;;7.95;2.47;;;;;;;18.98;68.61;100576.00;5079578;28;20040;-64
2021/09/11 07:13:41;;;;;;;3.25;1.90;;;;;;;19.11;69.15;100583.47;5084801;28;20113;-64
2021/09/11 07:16:08;;;;;;;7.68;2.97;;;;;;;19.17;68.75;100567.94;5076231;28;20143;-64
2021/09/11 07:18:35;;;;;;;4.22;2.70;;;;;;;19.32;68.54;100592.06;5071857;28;20493;-64
2021/09/11 07:21:03;;;;;;;3.45;2.08;;;;;;;19.29;68.36;100594.75;5072098;28;20075;-64
2021/09/11 07:23:30;;;;;;;10.45;2.45;;;;;;;19.41;67.89;100592.00;5085195;28;20040;-64
2021/09/11 07:25:58;;;;;;;6.38;2.40;;;;;;;19.76;67.69;100594.69;5090048;28;20083;-65
2021/09/11 07:28:24;;;;;;;4.13;2.53;;;;;;;20.13;67.15;100607.16;5090000;28;20080;-66
2021/09/11 07:30:51;;;;;;;4.25;2.17;;;;;;;20.58;66.22;100593.16;5085301;28;20076;-65
2021/09/11 07:33:18;;;;;;;4.95;2.15;;;;;;;21.03;65.38;100608.59;5072165;28;20055;-65
2021/09/11 07:35:45;;;;;;;5.93;2.65;;;;;;;21.42;64.29;100580.78;5071826;28;20131;-67
2021/09/11 07:38:14;;;;;;;4.43;2.45;;;;;;;21.44;63.32;100519.59;5081799;28;20084;-64
2021/09/11 07:40:43;;;;;;;3.50;1.95;;;;;;;21.94;62.90;100592.25;5092079;28;20084;-65
2021/09/11 07:43:10;;;;;;;3.75;1.45;;;;;;;22.13;62.26;100593.69;5077878;28;20123;-64
2021/09/11 07:45:38;;;;;;;6.18;2.40;;;;;;;22.09;61.36;100599.25;5074585;28;20147;-66
2021/09/11 07:48:06;;;;;;;5.32;2.40;;;;;;;21.77;61.15;100595.34;5089916;28;20044;-64
2021/09/11 07:50:35;;;;;;;4.55;2.00;;;;;;;21.75;61.23;100590.03;5078005;28;20480;-65
2021/09/11 07:53:03;;;;;;;7.80;2.88;;;;;;;22.03;60.95;100609.22;5074294;28;20080;-65
2021/09/11 07:55:32;;;;;;;4.85;2.47;;;;;;;22.01;60.52;100591.66;5083001;28;20140;-66
2021/09/11 07:57:59;;;;;;;5.53;2.60;;;;;;;22.23;60.44;100596.91;5088909;28;20113;-66
2021/09/11 08:00:26;;;;;;;4.60;2.33;;;;;;;22.71;60.22;100615.00;5081724;28;20388;-66
2021/09/11 08:02:53;;;;;;;5.72;3.42;;;;;;;23.28;59.64;100617.84;5087776;28;20044;-66
2021/09/11 08:05:21;;;;;;;6.78;2.67;;;;;;;23.67;58.37;100598.94;5088391;28;20562;-66
2021/09/11 08:07:51;;;;;;;6.72;2.55;;;;;;;23.96;57.84;100614.75;5085302;28;20128;-66
2021/09/11 08:10:18;;;;;;;;;;;;;;;23.74;58.94;100604.84;5071559;28;20139;-66
2021/09/11 08:12:46;;;;;;;4.93;2.95;;;;;;;23.70;57.64;100603.94;5083316;28;20439;-66
2021/09/11 08:15:18;;;;;;;5.72;3.10;;;;;;;23.78;57.15;100602.91;5079610;28;20036;-65
2021/09/11 08:17:46;;;;;;;8.13;3.33;;;;;;;23.92;56.19;100593.06;5086959;28;20041;-65
2021/09/11 08:20:14;;;;;;;4.88;2.85;;;;;;;23.77;56.22;100598.41;5075943;28;20068;-67
2021/09/11 08:22:42;;;;;;;4.40;2.35;;;;;;;23.55;56.46;100593.31;5075906;28;20076;-66
2021/09/11 08:25:09;;;;;;;4.13;2.35;;;;;;;23.33;56.53;100595.63;5074823;28;20076;-66
2021/09/11 08:27:36;;;;;;;5.57;2.47;;;;;;;23.14;56.29;100604.03;5074084;28;20076;-65
2021/09/11 08:30:05;;;;;;;2.38;1.80;;;;;;;22.89;56.94;100597.63;5074074;28;20072;-65
2021/09/11 08:32:34;;;;;;;7.10;2.83;;;;;;;22.62;56.83;100582.19;5084165;28;20560;-64
2021/09/11 08:35:02;;;;;;;5.00;4.10;;;;;;;22.75;56.80;100615.13;5082568;28;20123;-65
2021/09/11 08:37:29;;;;;;;9.65;2.92;;;;;;;23.09;57.21;100612.88;5078122;28;20087;-61
2021/09/11 08:39:55;;;;;;;4.32;2.40;;;;;;;23.53;56.29;100613.66;5075586;28;20123;-65
2021/09/11 08:42:22;;;;;;;6.28;2.05;;;;;;;23.98;55.47;100617.25;5087331;28;20105;-64
2021/09/11 08:44:49;;;;;;;6.38;2.15;;;;;;;23.86;54.85;100623.88;5086080;28;20080;-65
2021/09/11 08:47:17;;;;;;;7.43;2.60;;;;;;;24.11;54.62;100613.91;5084325;28;20044;-65
2021/09/11 08:49:44;;;;;;;11.07;2.42;;;;;;;24.25;54.15;100624.03;5091231;28;20094;-65
2021/09/11 08:52:13;;;;;;;6.50;2.35;;;;;;;24.60;53.06;100624.03;5085890;28;20124;-65
2021/09/11 08:54:40;;;;;;;5.35;2.13;;;;;;;24.78;53.25;100613.81;5079688;28;20051;-66
2021/09/11 08:57:18;;;;;;;6.78;2.42;;;;;;;25.02;52.58;100614.69;5089555;28;20094;-68
2021/09/11 08:59:45;;;;;;;3.63;2.63;;;;;;;25.29;51.71;100610.78;5088815;28;20127;-67
2021/09/11 09:02:11;;;;;;;3.08;2.15;;;;;;;25.69;51.01;100612.31;5087679;28;20076;-67
2021/09/11 09:04:49;;;;;;;5.93;2.30;;;;;;;26.02;50.22;100596.56;5092272;28;20048;-66
2021/09/11 09:07:41;;;;;;;4.47;2.75;;;;;;;26.38;50.00;100606.47;5088121;28;20076;-67
2021/09/11 09:10:10;;;;;;;5.80;3.05;;;;;;;26.32;48.63;100581.44;5071487;28;20127;-65
2021/09/11 09:12:40;;;;;;;7.78;2.00;;;;;;;26.65;48.43;100590.09;5081022;28;20055;-66
2021/09/11 09:15:08;;;;;;;;;;;;;;;26.81;49.53;100603.41;5089311;28;20119;-66
2021/09/11 09:17:42;;;;;;;4.47;3.10;;;;;;;27.22;48.41;100609.25;5083737;28;19920;-66
2021/09/11 09:20:20;;;;;;;6.07;3.15;;;;;;;27.50;48.16;100618.13;5090576;28;20521;-67
2021/09/11 09:23:17;;;;;;;5.78;2.85;;;;;;;27.50;47.22;100612.41;5074439;28;20079;-67
2021/09/11 09:25:45;;;;;;;5.75;2.88;;;;;;;27.50;47.02;100612.41;5082081;28;20649;-66
2021/09/11 09:28:14;;;;;;;7.60;2.97;;;;;;;27.54;46.78;100601.78;5088445;28;20131;-68
2021/09/11 09:30:49;;;;;;;3.85;2.50;;;;;;;28.02;46.39;100598.94;5079643;28;20119;-66
2021/09/11 09:33:21;;;;;;;7.90;3.00;;;;;;;28.81;45.46;100600.22;5091453;28;20050;-66
2021/09/11 09:35:49;;;;;;;4.85;2.45;;;;;;;29.59;44.09;100598.84;5079883;28;20188;-65
2021/09/11 09:38:17;;;;;;;4.33;2.37;;;;;;;30.27;43.60;100581.56;5092228;28;20538;-65
2021/09/11 09:40:48;;;;;;;4.50;1.88;;;;;;;30.88;42.10;100581.38;5090259;28;20078;-66
2021/09/11 09:43:40;;;;;;;2.90;1.88;;;;;;;31.05;42.21;100585.41;5092664;28;20072;-65
2021/09/11 09:46:15;;;;;;;3.95;2.30;;;;;;;31.41;41.36;100582.31;5090016;28;20458;-65
2021/09/11 09:48:44;;;;;;;3.45;1.45;;;;;;;31.53;39.75;100582.66;5089867;28;20133;-63
2021/09/11 09:51:17;;;;;;;3.67;1.48;;;;;;;31.29;39.95;100587.31;5081324;28;20040;-63
2021/09/11 09:53:46;;;;;;;6.20;1.70;;;;;;;31.46;39.40;100567.47;5087663;28;20127;-63
2021/09/11 09:56:13;;;;;;;2.35;1.23;;;;;;;31.98;39.01;100605.81;5093226;28;20126;-65
2021/09/11 09:58:40;;;;;;;3.08;1.20;;;;;;;32.01;38.75;100607.84;5092397;28;20499;-66
2021/09/11 10:01:07;;;;;;;1.45;0.98;;;;;;;31.84;38.32;100614.56;5082063;28;20128;-65
2021/09/11 10:03:35;;;;;;;2.20;1.48;;;;;;;31.80;38.27;100600.19;5079193;28;20416;-63
2021/09/11 10:06:15;;;;;;;1.98;1.17;;;;;;;32.00;38.10;100599.59;5076388;28;20059;-66
2021/09/11 10:08:54;;;;;;;2.00;1.52;;;;;;;32.20;38.38;100599.81;5087258;28;20086;-65
2021/09/11 10:11:21;;;;;;;7.65;1.17;;;;;;;32.39;38.42;100592.63;5093025;28;20131;-65
2021/09/11 10:14:00;;;;;;;4.07;1.40;;;;;;;32.05;37.52;100570.28;5093062;28;20135;-66
2021/09/11 10:16:30;;;;;;;;;;;;;;;31.60;39.43;100582.59;5084183;28;20097;-66
2021/09/11 10:18:58;;;;;;;2.97;1.30;;;;;;;31.80;38.54;100587.81;5090282;28;20021;-66
2021/09/11 10:21:37;;;;;;;3.83;1.38;;;;;;;31.43;37.83;100574.06;5072603;28;20128;-65
2021/09/11 10:24:06;;;;;;;3.92;1.55;;;;;;;31.08;39.05;100596.13;5072912;28;20076;-63
2021/09/11 10:26:41;;;;;;;2.63;1.25;;;;;;;30.99;39.23;100592.84;5071975;28;20048;-64
2021/09/11 10:29:46;;;;;;;2.95;1.52;;;;;;;31.34;39.22;100571.66;5072289;28;20131;-64
2021/09/11 10:32:28;;;;;;;1.92;1.33;;;;;;;32.15;39.15;100578.00;5068900;28;20163;-65
2021/09/11 10:35:04;;;;;;;3.15;1.48;;;;;;;32.55;37.63;100576.34;5078475;28;20471;-65
2021/09/11 10:37:41;;;;;;;3.95;1.23;;;;;;;32.80;37.31;100569.44;5072829;28;20460;-65
2021/09/11 10:40:23;;;;;;;2.35;1.42;;;;;;;32.72;36.32;100568.72;5075441;28;20090;-64
2021/09/11 10:43:16;;;;;;;3.72;1.30;;;;;;;32.66;36.78;100575.41;5092493;28;20085;-64
2021/09/11 10:45:58;;;;;;;5.22;1.73;;;;;;;32.75;36.64;100567.84;5076067;28;20468;-66
2021/09/11 10:48:34;;;;;;;4.65;1.00;;;;;;;32.89;35.77;100566.84;5083326;28;20071;-65
2021/09/11 10:51:17;;;;;;;5.82;1.67;;;;;;;32.71;36.28;100567.06;5089780;28;20131;-65
2021/09/11 10:54:07;;;;;;;1.90;1.42;;;;;;;33.13;36.49;100564.03;5091634;28;20076;-65
2021/09/11 10:56:44;;;;;;;1.55;1.23;;;;;;;33.83;35.59;100557.59;5080342;28;20458;-64
2021/09/11 10:59:14;;;;;;;1.20;1.10;;;;;;;34.02;34.40;100565.56;5078657;28;20135;-68
2021/09/11 11:02:11;;;;;;;2.55;1.30;;;;;;;33.71;34.22;100527.16;5087987;28;20082;-73
2021/09/11 11:04:59;;;;;;;5.10;1.70;;;;;;;33.57;35.23;100545.59;5092519;28;20068;-61
2021/09/11 11:07:31;;;;;;;2.10;1.20;;;;;;;33.62;34.06;100548.00;5084131;28;20078;-64
2021/09/11 11:10:01;;;;;;;3.25;1.45;;;;;;;33.95;34.55;100545.38;5090252;28;20130;-62
2021/09/11 11:12:28;;;;;;;1.45;1.13;;;;;;;34.37;33.71;100551.63;5083828;28;20048;-63
2021/09/11 11:15:01;;;;;;;1.98;1.23;;;;;;;34.17;33.34;100535.03;5090953;28;20040;-64
2021/09/11 11:17:29;;;;;;;1.92;1.20;;;;;;;33.68;33.21;100511.50;5071360;28;20041;-63
2021/09/11 11:19:57;;;;;;;1.95;1.13;;;;;;;33.76;32.95;100543.22;5071065;28;20508;-66
2021/09/11 11:22:31;;;;;;;0.90;0.90;;;;;;;33.96;33.99;100539.13;5071626;28;20544;-67
2021/09/11 11:24:58;;;;;;;5.40;1.23;;;;;;;34.83;33.09;100544.88;5087347;28;20040;-66
2021/09/11 11:27:27;;;;;;;1.08;1.02;;;;;;;34.77;32.33;100529.28;5081740;28;20496;-66
2021/09/11 11:29:56;;;;;;;1.98;1.42;;;;;;;34.73;32.78;100521.91;5075641;28;20079;-67
2021/09/11 11:32:29;;;;;;;1.45;1.25;;;;;;;35.30;32.41;100501.09;5090556;28;20048;-66
2021/09/11 11:34:59;;;;;;;2.92;1.35;;;;;;;35.93;31.40;100511.53;5091390;28;20144;-66